createdAt,value
2023-03-13T00:02:19.273Z,1.40
2023-03-13T00:04:51.907Z,1.38
2023-03-13T00:07:24.272Z,1.73
2023-03-13T00:09:56.223Z,1.38
2023-03-13T00:12:28.578Z,1.30
2023-03-13T00:15:00.574Z,1.50
2023-03-13T00:17:33.504Z,1.60
2023-03-13T00:20:07.440Z,1.90
2023-03-13T00:22:39.490Z,1.83
2023-03-13T00:25:11.475Z,1.50
2023-03-13T00:27:43.855Z,1.60
2023-03-13T00:30:16.835Z,1.50
2023-03-13T00:32:48.992Z,1.30
2023-03-13T00:35:21.072Z,1.35
2023-03-13T00:37:53.220Z,1.45
2023-03-13T00:40:25.228Z,1.40
2023-03-13T00:42:57.545Z,1.20
2023-03-13T00:45:29.518Z,1.13
2023-03-13T00:48:01.569Z,1.30
2023-03-13T00:50:33.584Z,1.05
2023-03-13T00:53:05.649Z,1.20
2023-03-13T00:55:39.190Z,1.23
2023-03-13T00:58:11.308Z,1.35
2023-03-13T01:00:43.325Z,1.50
2023-03-13T01:03:16.650Z,1.33
2023-03-13T01:05:59.809Z,1.98
2023-03-13T01:08:32.247Z,1.23
2023-03-13T01:11:07.630Z,1.10
2023-03-13T01:13:40.096Z,1.20
2023-03-13T01:16:18.925Z,1.45
2023-03-13T01:18:55.935Z,1.15
2023-03-13T01:21:29.035Z,1.50
2023-03-13T01:24:01.948Z,1.70
2023-03-13T01:26:34.378Z,1.35
2023-03-13T01:29:06.509Z,1.27
2023-03-13T01:31:38.684Z,1.30
2023-03-13T01:34:13.032Z,1.30
2023-03-13T01:36:47.052Z,1.25
2023-03-13T01:39:19.089Z,1.50
2023-03-13T01:41:51.294Z,1.30
2023-03-13T01:44:25.683Z,1.45
2023-03-13T01:46:59.103Z,1.30
2023-03-13T01:49:34.730Z,1.27
2023-03-13T01:52:28.751Z,1.13
2023-03-13T01:55:23.879Z,1.30
2023-03-13T01:57:58.051Z,1.20
2023-03-13T02:00:35.779Z,1.48
2023-03-13T02:03:12.529Z,1.63
2023-03-13T02:05:48.268Z,1.40
2023-03-13T02:08:34.037Z,1.27
2023-03-13T02:11:44.019Z,1.10
2023-03-13T02:14:20.332Z,1.20
2023-03-13T02:16:55.598Z,1.20
2023-03-13T02:22:20.569Z,1.27
2023-03-13T02:25:18.454Z,1.25
2023-03-13T02:28:00.952Z,1.10
2023-03-13T02:30:35.391Z,1.45
2023-03-13T02:35:43.197Z,1.67
2023-03-13T02:38:23.644Z,0.93
2023-03-13T02:40:57.500Z,1.00
2023-03-13T02:43:33.089Z,1.00
2023-03-13T02:46:14.396Z,1.13
2023-03-13T02:48:53.975Z,0.93
2023-03-13T02:51:42.160Z,1.20
2023-03-13T02:54:23.379Z,1.20
2023-03-13T02:56:58.733Z,1.50
2023-03-13T02:59:31.974Z,1.17
2023-03-13T03:02:05.220Z,1.00
2023-03-13T03:04:37.430Z,1.33
2023-03-13T03:07:09.453Z,1.10
2023-03-13T03:09:41.760Z,1.00
2023-03-13T03:12:18.657Z,1.30
2023-03-13T03:14:51.105Z,1.20
2023-03-13T03:17:23.675Z,1.30
2023-03-13T03:19:55.799Z,1.05
2023-03-13T03:22:28.140Z,1.10
2023-03-13T03:25:00.283Z,1.05
2023-03-13T03:27:32.754Z,0.90
2023-03-13T03:30:06.456Z,0.98
2023-03-13T03:32:40.436Z,0.75
2023-03-13T03:35:12.578Z,1.10
2023-03-13T03:37:45.127Z,0.95
2023-03-13T03:40:18.010Z,1.30
2023-03-13T03:42:53.133Z,0.95
2023-03-13T03:45:25.887Z,0.90
2023-03-13T03:48:00.243Z,0.97
2023-03-13T03:50:33.222Z,0.88
2023-03-13T03:53:08.077Z,0.90
2023-03-13T03:55:40.554Z,1.10
2023-03-13T03:58:12.714Z,0.80
2023-03-13T04:01:01.142Z,1.02
2023-03-13T04:03:33.670Z,1.00
2023-03-13T04:06:07.222Z,0.80
2023-03-13T04:08:39.225Z,1.10
2023-03-13T04:11:11.736Z,1.00
2023-03-13T04:13:46.898Z,1.30
2023-03-13T04:16:19.146Z,0.80
2023-03-13T04:18:52.990Z,0.95
2023-03-13T04:21:25.760Z,0.85
2023-03-13T04:24:07.389Z,1.00
2023-03-13T04:26:40.998Z,1.02
2023-03-13T04:29:13.218Z,1.10
2023-03-13T04:32:05.838Z,0.80
2023-03-13T04:35:01.203Z,0.90
2023-03-13T04:37:52.292Z,0.90
2023-03-13T04:40:53.604Z,1.17
2023-03-13T04:43:44.008Z,0.90
2023-03-13T04:46:34.419Z,0.90
2023-03-13T04:49:26.775Z,0.95
2023-03-13T04:52:17.357Z,1.00
2023-03-13T04:55:09.545Z,1.10
2023-03-13T04:58:10.861Z,1.23
2023-03-13T05:03:34.481Z,1.10
2023-03-13T05:06:16.418Z,1.00
2023-03-13T05:09:09.540Z,0.98
2023-03-13T05:12:05.044Z,1.10
2023-03-13T05:14:57.327Z,1.00
2023-03-13T05:17:47.847Z,1.25
2023-03-13T05:20:32.779Z,1.30
2023-03-13T05:23:24.668Z,1.30
2023-03-13T05:26:35.358Z,0.82
2023-03-13T05:29:27.040Z,1.20
2023-03-13T05:32:18.056Z,1.10
2023-03-13T05:35:19.762Z,1.40
2023-03-13T05:37:54.606Z,0.75
2023-03-13T05:40:43.939Z,0.95
2023-03-13T05:43:45.291Z,1.50
2023-03-13T05:46:34.305Z,1.05
2023-03-13T05:49:25.221Z,0.80
2023-03-13T05:52:14.539Z,1.05
2023-03-13T05:54:47.033Z,0.90
2023-03-13T05:57:48.820Z,1.30
2023-03-13T06:00:35.879Z,1.20
2023-03-13T06:03:27.950Z,1.00
2023-03-13T06:06:02.026Z,1.60
2023-03-13T06:08:45.549Z,1.42
2023-03-13T06:11:18.075Z,1.35
2023-03-13T06:13:53.031Z,1.45
2023-03-13T06:16:34.263Z,2.03
2023-03-13T06:19:25.135Z,1.40
2023-03-13T06:21:57.310Z,1.48
2023-03-13T06:24:29.586Z,1.23
2023-03-13T06:27:01.887Z,1.10
2023-03-13T06:29:33.984Z,1.20
2023-03-13T06:32:06.476Z,1.20
2023-03-13T06:34:38.689Z,1.00
2023-03-13T06:37:10.761Z,0.93
2023-03-13T06:39:42.779Z,1.40
2023-03-13T06:42:15.074Z,1.40
2023-03-13T06:44:47.406Z,1.27
2023-03-13T06:47:19.613Z,1.75
2023-03-13T06:49:51.676Z,1.50
2023-03-13T06:52:37.491Z,1.65
2023-03-13T06:55:13.684Z,1.33
2023-03-13T06:57:50.501Z,1.40
2023-03-13T07:00:23.331Z,1.52
2023-03-13T07:02:55.540Z,1.75
2023-03-13T07:05:27.838Z,2.30
2023-03-13T07:08:00.264Z,2.40
2023-03-13T07:10:33.560Z,3.28
2023-03-13T07:13:05.601Z,2.53
2023-03-13T07:15:37.996Z,2.85
2023-03-13T07:18:10.441Z,4.13
2023-03-13T07:20:42.600Z,2.97
2023-03-13T07:23:14.677Z,2.47
2023-03-13T07:25:54.854Z,1.95
2023-03-13T07:28:28.684Z,2.28
2023-03-13T07:31:08.353Z,2.53
2023-03-13T07:33:41.277Z,2.03
2023-03-13T07:36:16.425Z,2.50
2023-03-13T07:38:49.538Z,2.33
2023-03-13T07:41:23.085Z,2.00
2023-03-13T07:43:55.157Z,1.50
2023-03-13T07:46:27.946Z,1.73
2023-03-13T07:49:00.030Z,1.37
2023-03-13T07:51:42.916Z,1.40
2023-03-13T07:54:16.270Z,1.08
2023-03-13T07:56:48.992Z,1.40
2023-03-13T07:59:21.009Z,1.17
2023-03-13T08:01:53.175Z,1.17
2023-03-13T08:04:25.454Z,1.65
2023-03-13T08:06:57.648Z,1.40
2023-03-13T08:09:33.378Z,1.40
2023-03-13T08:12:06.622Z,1.63
2023-03-13T08:14:38.721Z,2.22
2023-03-13T08:17:11.085Z,1.92
2023-03-13T08:19:43.246Z,2.20
2023-03-13T08:22:15.366Z,1.50
2023-03-13T08:24:48.550Z,1.67
2023-03-13T08:27:20.586Z,2.10
2023-03-13T08:29:53.294Z,1.75
2023-03-13T08:32:25.413Z,1.25
2023-03-13T08:34:57.441Z,1.40
2023-03-13T08:37:29.578Z,1.17
2023-03-13T08:40:01.602Z,1.02
2023-03-13T08:42:33.621Z,1.02
2023-03-13T08:45:06.677Z,1.15
2023-03-13T08:47:39.047Z,1.70
2023-03-13T08:50:11.384Z,1.50
2023-03-13T08:52:45.113Z,1.00
2023-03-13T08:57:49.225Z,1.65
2023-03-13T09:00:21.743Z,1.13
2023-03-13T09:02:54.161Z,1.17
2023-03-13T09:05:26.309Z,1.20
2023-03-13T09:07:58.481Z,1.50
2023-03-13T09:10:33.469Z,1.00
2023-03-13T09:13:06.000Z,0.88
2023-03-13T09:15:38.230Z,1.30
2023-03-13T09:18:10.760Z,1.00
2023-03-13T09:20:44.006Z,1.05
2023-03-13T09:23:16.270Z,1.08
2023-03-13T09:25:49.964Z,1.20
2023-03-13T09:30:55.474Z,1.20
2023-03-13T09:33:27.622Z,0.98
2023-03-13T09:35:59.916Z,0.93
2023-03-13T09:38:32.416Z,0.80
2023-03-13T09:41:22.586Z,0.85
2023-03-13T09:44:16.466Z,0.70
2023-03-13T09:46:48.696Z,0.63
2023-03-13T09:49:40.139Z,0.90
2023-03-13T09:52:22.729Z,0.52
2023-03-13T09:55:22.586Z,0.85
2023-03-13T09:57:57.153Z,0.65
2023-03-13T10:00:38.438Z,0.60
2023-03-13T10:03:31.988Z,0.60
2023-03-13T10:06:20.097Z,0.70
2023-03-13T10:08:52.945Z,0.60
2023-03-13T10:11:38.151Z,0.47
2023-03-13T10:14:18.825Z,0.60
2023-03-13T10:17:18.368Z,0.70
2023-03-13T10:19:59.115Z,0.60
2023-03-13T10:22:32.669Z,0.50
2023-03-13T10:25:21.219Z,0.82
2023-03-13T10:27:54.979Z,0.70
2023-03-13T10:30:31.760Z,0.60
2023-03-13T10:33:13.709Z,0.60
2023-03-13T10:35:46.222Z,0.70
2023-03-13T10:38:20.371Z,0.65
2023-03-13T10:41:10.721Z,0.80
2023-03-13T10:43:54.167Z,0.70
2023-03-13T10:46:28.492Z,0.40
2023-03-13T10:49:04.249Z,0.73
2023-03-13T10:51:39.650Z,0.47
2023-03-13T10:54:32.165Z,0.50
2023-03-13T10:57:26.097Z,0.57
2023-03-13T10:59:59.320Z,0.70
2023-03-13T11:02:39.697Z,0.70
2023-03-13T11:05:24.637Z,0.80
2023-03-13T11:07:56.910Z,0.95
2023-03-13T11:10:30.519Z,0.75
2023-03-13T11:13:03.963Z,0.85
2023-03-13T11:15:44.339Z,0.73
2023-03-13T11:18:32.893Z,0.70
2023-03-13T11:21:17.537Z,0.70
2023-03-13T11:24:04.511Z,0.75
2023-03-13T11:26:49.767Z,0.70
2023-03-13T11:29:38.844Z,0.85
2023-03-13T11:32:31.162Z,0.80
2023-03-13T11:35:15.459Z,0.70
2023-03-13T11:37:51.377Z,0.93
2023-03-13T11:40:36.247Z,0.50
2023-03-13T11:43:25.551Z,0.25
2023-03-13T11:46:07.307Z,0.60
2023-03-13T11:49:10.495Z,0.88
2023-03-13T11:52:09.570Z,0.50
2023-03-13T11:55:02.709Z,0.50
2023-03-13T11:58:20.384Z,0.70
2023-03-13T12:01:13.259Z,0.70
2023-03-13T12:04:14.623Z,0.73
2023-03-13T12:07:13.028Z,0.68
2023-03-13T12:09:51.637Z,0.57
2023-03-13T12:12:45.327Z,0.70
2023-03-13T12:15:28.119Z,0.57
2023-03-13T12:18:22.630Z,0.53
2023-03-13T12:21:13.074Z,0.90
2023-03-13T12:23:57.285Z,0.40
2023-03-13T12:26:38.821Z,0.60
2023-03-13T12:29:56.593Z,0.60
2023-03-13T12:32:40.743Z,0.60
2023-03-13T12:35:12.804Z,0.52
2023-03-13T12:37:58.217Z,0.60
2023-03-13T12:40:48.535Z,1.08
2023-03-13T12:43:23.847Z,0.70
2023-03-13T12:45:59.089Z,0.60
2023-03-13T12:48:38.113Z,0.50
2023-03-13T12:51:29.129Z,0.88
2023-03-13T12:54:29.798Z,0.80
2023-03-13T12:57:14.149Z,0.70
2023-03-13T13:00:00.370Z,0.70
2023-03-13T13:02:32.828Z,0.90
2023-03-13T13:05:05.605Z,1.10
2023-03-13T13:07:40.060Z,0.98
2023-03-13T13:10:12.154Z,0.93
2023-03-13T13:12:46.707Z,0.90
2023-03-13T13:15:30.131Z,0.98
2023-03-13T13:18:12.815Z,1.23
2023-03-13T13:20:48.756Z,0.88
2023-03-13T13:23:23.678Z,1.15
2023-03-13T13:26:16.776Z,0.90
2023-03-13T13:28:48.823Z,1.05
2023-03-13T13:31:50.913Z,0.88
2023-03-13T13:34:32.269Z,1.20
2023-03-13T13:37:13.802Z,1.05
2023-03-13T13:39:50.139Z,0.90
2023-03-13T13:42:31.880Z,0.80
2023-03-13T13:45:05.640Z,0.90
2023-03-13T13:47:38.421Z,1.08
2023-03-13T13:50:21.898Z,1.10
2023-03-13T13:53:13.987Z,1.40
2023-03-13T13:55:46.189Z,1.13
2023-03-13T13:58:23.727Z,1.00
2023-03-13T14:01:03.987Z,1.05
2023-03-13T14:03:42.404Z,0.90
2023-03-13T14:06:20.372Z,0.98
2023-03-13T14:08:55.347Z,1.20
2023-03-13T14:11:34.277Z,1.00
2023-03-13T14:14:19.485Z,0.98
2023-03-13T14:16:57.187Z,0.80
2023-03-13T14:19:40.975Z,1.10
2023-03-13T14:22:14.563Z,1.17
2023-03-13T14:24:58.628Z,1.10
2023-03-13T14:27:31.183Z,1.10
2023-03-13T14:30:11.718Z,1.08
2023-03-13T14:32:44.385Z,1.08
2023-03-13T14:35:19.392Z,1.20
2023-03-13T14:37:54.545Z,1.17
2023-03-13T14:40:30.078Z,0.98
2023-03-13T14:43:03.086Z,1.02
2023-03-13T14:45:37.140Z,1.10
2023-03-13T14:48:37.795Z,0.80
2023-03-13T14:51:16.004Z,1.13
2023-03-13T14:54:02.394Z,1.05
2023-03-13T14:56:42.394Z,1.08
2023-03-13T14:59:19.190Z,0.90
2023-03-13T15:02:10.802Z,1.00
2023-03-13T15:04:53.301Z,1.02
2023-03-13T15:07:28.336Z,0.90
2023-03-13T15:10:00.896Z,0.95
2023-03-13T15:12:41.669Z,0.80
2023-03-13T15:15:14.880Z,0.70
2023-03-13T15:17:47.489Z,0.93
2023-03-13T15:20:21.099Z,0.80
2023-03-13T15:22:53.704Z,1.30
2023-03-13T15:25:26.794Z,0.82
2023-03-13T15:27:59.466Z,0.65
2023-03-13T15:30:32.434Z,0.80
2023-03-13T15:33:05.609Z,0.90
2023-03-13T15:35:38.273Z,1.00
2023-03-13T15:38:13.310Z,0.68
2023-03-13T15:40:46.387Z,0.77
2023-03-13T15:43:19.959Z,1.00
2023-03-13T15:48:29.022Z,1.50
2023-03-13T15:51:04.092Z,1.77
2023-03-13T15:53:37.208Z,1.10
2023-03-13T15:56:16.554Z,1.10
2023-03-13T15:58:49.408Z,1.10
2023-03-13T16:01:23.315Z,1.20
2023-03-13T16:03:58.247Z,1.00
2023-03-13T16:06:31.641Z,0.70
2023-03-13T16:09:06.630Z,1.27
2023-03-13T16:11:39.090Z,1.27
2023-03-13T16:14:11.576Z,1.30
2023-03-13T16:16:43.659Z,1.30
2023-03-13T16:19:15.842Z,1.30
2023-03-13T16:21:48.700Z,1.38
2023-03-13T16:24:20.971Z,1.52
2023-03-13T16:26:53.325Z,1.20
2023-03-13T16:29:25.790Z,1.20
2023-03-13T16:31:57.806Z,1.48
2023-03-13T16:34:30.250Z,1.20
2023-03-13T16:37:02.326Z,1.20
2023-03-13T16:39:34.442Z,1.05
2023-03-13T16:42:06.648Z,1.40
2023-03-13T16:44:39.501Z,1.73
2023-03-13T16:47:27.299Z,1.30
2023-03-13T16:49:59.507Z,1.35
2023-03-13T16:52:31.593Z,1.52
2023-03-13T16:55:04.196Z,1.20
2023-03-13T16:57:36.599Z,1.10
2023-03-13T17:00:19.095Z,1.20
2023-03-13T17:02:51.880Z,1.10
2023-03-13T17:05:26.100Z,1.38
2023-03-13T17:07:58.125Z,1.02
2023-03-13T17:10:32.422Z,1.20
2023-03-13T17:13:05.652Z,1.13
2023-03-13T17:15:38.504Z,1.10
2023-03-13T17:18:10.738Z,1.10
2023-03-13T17:20:42.793Z,0.90
2023-03-13T17:23:15.332Z,0.85
2023-03-13T17:25:47.436Z,0.90
2023-03-13T17:28:19.427Z,1.00
2023-03-13T17:30:51.463Z,1.05
2023-03-13T17:33:23.880Z,1.73
2023-03-13T17:35:55.977Z,1.10
2023-03-13T17:38:28.192Z,0.93
2023-03-13T17:41:00.212Z,1.63
2023-03-13T17:43:32.184Z,1.00
2023-03-13T17:46:05.939Z,1.00
2023-03-13T17:48:38.070Z,1.38
2023-03-13T17:51:15.254Z,1.40
2023-03-13T17:53:48.315Z,1.40
2023-03-13T17:56:20.402Z,1.17
2023-03-13T17:58:57.699Z,1.55
2023-03-13T18:01:31.910Z,1.00
2023-03-13T18:04:04.525Z,1.17
2023-03-13T18:06:40.362Z,1.05
2023-03-13T18:09:17.817Z,1.40
2023-03-13T18:11:50.176Z,1.60
2023-03-13T18:14:23.103Z,1.50
2023-03-13T18:16:57.509Z,1.77
2023-03-13T18:19:29.665Z,1.52
2023-03-13T18:22:02.150Z,1.65
2023-03-13T18:24:34.160Z,1.52
2023-03-13T18:27:14.960Z,1.45
2023-03-13T18:29:49.149Z,1.55
2023-03-13T18:32:21.267Z,1.65
2023-03-13T18:34:53.563Z,2.10
2023-03-13T18:37:30.611Z,2.72
2023-03-13T18:40:07.578Z,2.42
2023-03-13T18:42:39.647Z,3.33
2023-03-13T18:45:21.494Z,2.67
2023-03-13T18:47:54.285Z,3.10
2023-03-13T18:50:29.370Z,3.00
2023-03-13T18:53:01.884Z,2.45
2023-03-13T18:55:33.940Z,2.60
2023-03-13T18:58:06.269Z,2.00
2023-03-13T19:00:41.161Z,2.05
2023-03-13T19:03:14.034Z,2.25
2023-03-13T19:05:46.549Z,1.97
2023-03-13T19:08:18.937Z,2.47
2023-03-13T19:10:51.007Z,1.90
2023-03-13T19:13:23.531Z,2.53
2023-03-13T19:15:56.897Z,2.05
2023-03-13T19:21:01.305Z,2.30
2023-03-13T19:23:33.374Z,2.28
2023-03-13T19:26:05.649Z,2.45
2023-03-13T19:28:38.130Z,2.00
2023-03-13T19:31:10.386Z,2.13
2023-03-13T19:33:43.090Z,2.17
2023-03-13T19:36:20.630Z,2.35
2023-03-13T19:38:53.208Z,2.50
2023-03-13T19:41:28.011Z,2.20
2023-03-13T19:44:00.402Z,2.45
2023-03-13T19:46:33.435Z,3.10
2023-03-13T19:49:05.586Z,2.50
2023-03-13T19:51:38.481Z,2.58
2023-03-13T19:54:11.470Z,2.83
2023-03-13T19:56:48.411Z,3.03
2023-03-13T19:59:26.896Z,2.75
2023-03-13T20:02:01.371Z,2.83
2023-03-13T20:04:34.409Z,3.22
2023-03-13T20:07:08.313Z,2.83
2023-03-13T20:09:40.620Z,3.47
2023-03-13T20:12:12.927Z,3.33
2023-03-13T20:14:45.212Z,3.03
2023-03-13T20:17:17.346Z,3.05
2023-03-13T20:19:49.617Z,2.80
2023-03-13T20:22:21.627Z,3.15
2023-03-13T20:24:56.047Z,2.70
2023-03-13T20:27:28.040Z,3.00
2023-03-13T20:30:00.884Z,3.45
2023-03-13T20:32:33.436Z,3.40
2023-03-13T20:35:10.625Z,3.35
2023-03-13T20:37:43.037Z,3.03
2023-03-13T20:40:15.514Z,3.40
2023-03-13T20:42:47.982Z,3.17
2023-03-13T20:45:20.676Z,3.15
2023-03-13T20:47:52.792Z,2.90
2023-03-13T20:50:24.985Z,2.90
2023-03-13T20:52:57.821Z,5.10
2023-03-13T20:55:32.906Z,5.65
2023-03-13T20:58:05.426Z,5.32
2023-03-13T21:00:37.858Z,4.97
2023-03-13T21:03:10.258Z,4.20
2023-03-13T21:05:43.287Z,4.07
2023-03-13T21:08:15.524Z,3.90
2023-03-13T21:10:47.914Z,4.38
2023-03-13T21:13:20.110Z,2.78
2023-03-13T21:15:59.293Z,2.65
2023-03-13T21:18:31.414Z,3.00
2023-03-13T21:21:06.266Z,3.42
2023-03-13T21:23:39.521Z,3.60
2023-03-13T21:26:12.924Z,2.42
2023-03-13T21:28:45.108Z,3.35
2023-03-13T21:31:18.835Z,4.10
2023-03-13T21:33:50.965Z,4.13
2023-03-13T21:36:23.691Z,4.65
2023-03-13T21:38:55.757Z,5.10
2023-03-13T21:41:27.936Z,4.57
2023-03-13T21:43:59.940Z,4.50
2023-03-13T21:46:37.727Z,3.78
2023-03-13T21:49:09.882Z,3.03
2023-03-13T21:51:41.908Z,2.75
2023-03-13T21:54:13.932Z,2.85
2023-03-13T21:56:45.996Z,2.75
2023-03-13T21:59:18.366Z,3.50
2023-03-13T22:01:50.353Z,3.33
2023-03-13T22:04:22.416Z,2.65
2023-03-13T22:06:54.818Z,3.08
2023-03-13T22:09:27.134Z,2.67
2023-03-13T22:11:59.895Z,2.28
2023-03-13T22:14:31.962Z,4.90
2023-03-13T22:17:04.054Z,5.05
2023-03-13T22:19:36.147Z,3.85
2023-03-13T22:22:08.213Z,3.10
2023-03-13T22:24:40.286Z,3.80
2023-03-13T22:27:12.951Z,5.10
2023-03-13T22:29:45.037Z,2.67
2023-03-13T22:32:17.344Z,2.22
2023-03-13T22:34:49.583Z,1.90
2023-03-13T22:37:22.354Z,1.92
2023-03-13T22:39:54.830Z,2.07
2023-03-13T22:42:27.041Z,2.67
2023-03-13T22:44:59.096Z,2.08
2023-03-13T22:47:32.565Z,1.90
2023-03-13T22:50:05.067Z,1.95
2023-03-13T22:52:37.708Z,2.25
2023-03-13T22:55:10.121Z,1.50
2023-03-13T22:57:42.086Z,1.92
2023-03-13T23:00:14.628Z,1.85
2023-03-13T23:02:47.435Z,1.60
2023-03-13T23:05:19.463Z,1.83
2023-03-13T23:07:51.582Z,2.63
2023-03-13T23:10:23.717Z,1.80
2023-03-13T23:12:56.188Z,2.00
2023-03-13T23:15:33.475Z,1.52
2023-03-13T23:18:09.949Z,1.60
2023-03-13T23:20:42.000Z,2.03
2023-03-13T23:23:14.068Z,2.50
2023-03-13T23:25:46.682Z,2.65
2023-03-13T23:28:18.757Z,1.92
2023-03-13T23:30:50.717Z,1.20
2023-03-13T23:33:23.533Z,0.80
2023-03-13T23:35:55.749Z,0.95
2023-03-13T23:38:27.693Z,1.10
2023-03-13T23:40:59.723Z,3.08
2023-03-13T23:43:32.468Z,1.35
2023-03-13T23:46:05.549Z,1.23
2023-03-13T23:48:37.506Z,1.20
2023-03-13T23:51:09.658Z,1.08
2023-03-13T23:53:42.750Z,0.80
2023-03-13T23:56:15.541Z,1.00
2023-03-13T23:58:47.650Z,1.00
